Airfield :
LOGIN :

Register | Disclaimer

   EN    FR    IT 

 










Legend :    VFR   Marginal VFR   IFR   Intensive IFR   Very Intensive IFR
Visi :
Ceiling :
>= 8 km
>= 3000ft
5 to 8 km
1000 to 3000 ft
1500m to 5 km
500 to 1000 ft
800 to 1500m
200 to 500 ft
< 800m
< 200 ft
Symbols :   Thunderstorms  Fog  Heavy snow  Heavy precipitations  Wind > 20 kt
SIGMETs :     Misc.  Thunderstorms  Icing  Turbulence  Mountain Waves  Volcanic Ashes







- Airport Elevation : 538 ft
- IATA code : TNF
- Download approach charts


LFPN - Toussus Le Noble

CURRENT METAR :
  • 190700Z AUTO 12004KT 9999 FEW047 12/11 Q1009 BECMG 19013KT

EXPIRED METARs :
  • 190630Z AUTO 11005KT CAVOK 12/11 Q1008 BECMG 19013KT
  • 190600Z AUTO 12005KT CAVOK 12/11 Q1008 NOSIG
  • 190530Z AUTO 11004KT 9000 BKN049 12/11 Q1008 NOSIG
  • 190500Z AUTO 12004KT 9000 NSC 12/11 Q1008
  • 190430Z AUTO 11004KT CAVOK 11/10 Q1008

TAF TAF LFPN
Valid from the 19 at 06:00 until the 19 at 15:00 UTC


190500Z 1906/1915 14005KT 9999 BKN030
BECMG 1908/1911 19013KT
TEMPO 1912/1915 19015G25KT
ATIS : +33 1 39 56 54 70
No reported NOTAMs for that airfield.



MET'MAP, your aeronautical weather chart ! - Copyright ORBIFLY December 2007 - Disclaimer

ORBIFLY MET'MAP TEAM :

Programming & Development : Alexandra Zaïnal
Concept & Development : Baudouin d'Aumeries
Co-Development & Prog : Marc-Olivier Méhu
Technical & hardware support : Manuel Goepfert

Contact : metmap@orbifly.com




SOURCES & CREDITS :

   NOAA